sensor_id;sensor_type;location;lat;lon;timestamp;pressure;altitude;pressure_sealevel;temperature;humidity
74778;BME280;63298;53.164;8.610;2022-11-15T00:00:50;101170.47;;;8.17;79.89
74778;BME280;63298;53.164;8.610;2022-11-15T00:03:18;101168.31;;;8.19;79.87
74778;BME280;63298;53.164;8.610;2022-11-15T00:05:44;101168.78;;;8.16;80.16
74778;BME280;63298;53.164;8.610;2022-11-15T00:08:10;101171.31;;;8.17;79.89
74778;BME280;63298;53.164;8.610;2022-11-15T00:10:36;101162.88;;;8.12;79.60
74778;BME280;63298;53.164;8.610;2022-11-15T00:13:12;101158.41;;;8.11;80.10
74778;BME280;63298;53.164;8.610;2022-11-15T00:15:39;101159.06;;;8.13;80.16
74778;BME280;63298;53.164;8.610;2022-11-15T00:18:06;101157.97;;;8.14;80.20
74778;BME280;63298;53.164;8.610;2022-11-15T00:20:35;101156.53;;;8.12;80.11
74778;BME280;63298;53.164;8.610;2022-11-15T00:23:03;101155.66;;;8.11;80.57
74778;BME280;63298;53.164;8.610;2022-11-15T00:25:28;101154.81;;;8.11;79.82
74778;BME280;63298;53.164;8.610;2022-11-15T00:27:57;101153.38;;;8.08;79.92
74778;BME280;63298;53.164;8.610;2022-11-15T00:30:23;101160.75;;;8.08;80.02
74778;BME280;63298;53.164;8.610;2022-11-15T00:32:49;101161.16;;;8.05;80.22
74778;BME280;63298;53.164;8.610;2022-11-15T00:35:15;101162.44;;;8.02;80.22
74778;BME280;63298;53.164;8.610;2022-11-15T00:37:42;101164.78;;;7.99;80.06
74778;BME280;63298;53.164;8.610;2022-11-15T00:40:08;101167.09;;;7.95;80.64
74778;BME280;63298;53.164;8.610;2022-11-15T00:42:37;101167.53;;;7.92;80.54
74778;BME280;63298;53.164;8.610;2022-11-15T00:45:02;101169.41;;;7.92;80.14
74778;BME280;63298;53.164;8.610;2022-11-15T00:47:28;101166.03;;;7.90;80.38
74778;BME280;63298;53.164;8.610;2022-11-15T00:49:53;101168.56;;;7.85;80.30
74778;BME280;63298;53.164;8.610;2022-11-15T00:52:18;101166.47;;;7.87;80.26
74778;BME280;63298;53.164;8.610;2022-11-15T00:54:44;101168.78;;;7.83;80.40
74778;BME280;63298;53.164;8.610;2022-11-15T00:57:09;101177.66;;;7.85;80.70
74778;BME280;63298;53.164;8.610;2022-11-15T00:59:35;101185.28;;;7.83;80.58
74778;BME280;63298;53.164;8.610;2022-11-15T01:02:00;101173.63;;;7.81;80.86
74778;BME280;63298;53.164;8.610;2022-11-15T01:04:26;101172.38;;;7.84;80.22
74778;BME280;63298;53.164;8.610;2022-11-15T01:06:51;101165.41;;;7.81;79.93
74778;BME280;63298;53.164;8.610;2022-11-15T01:09:16;101166.44;;;7.80;80.29
74778;BME280;63298;53.164;8.610;2022-11-15T01:11:42;101167.94;;;7.82;80.23
74778;BME280;63298;53.164;8.610;2022-11-15T01:14:07;101168.34;;;7.79;80.92
74778;BME280;63298;53.164;8.610;2022-11-15T01:16:33;101170.28;;;7.79;80.80
74778;BME280;63298;53.164;8.610;2022-11-15T01:18:59;101170.91;;;7.81;80.76
74778;BME280;63298;53.164;8.610;2022-11-15T01:21:25;101167.94;;;7.82;80.60
74778;BME280;63298;53.164;8.610;2022-11-15T01:23:55;101164.34;;;7.82;80.91
74778;BME280;63298;53.164;8.610;2022-11-15T01:26:22;101170.50;;;7.84;80.53
74778;BME280;63298;53.164;8.610;2022-11-15T01:28:47;101160.56;;;7.83;80.19
74778;BME280;63298;53.164;8.610;2022-11-15T01:31:16;101159.91;;;7.81;80.22
74778;BME280;63298;53.164;8.610;2022-11-15T01:33:42;101148.94;;;7.81;80.54
74778;BME280;63298;53.164;8.610;2022-11-15T01:36:12;101148.94;;;7.81;80.72
74778;BME280;63298;53.164;8.610;2022-11-15T01:38:38;101149.56;;;7.76;80.74
74778;BME280;63298;53.164;8.610;2022-11-15T01:41:04;101146.63;;;7.78;80.48
74778;BME280;63298;53.164;8.610;2022-11-15T01:43:33;101136.69;;;7.77;80.57
74778;BME280;63298;53.164;8.610;2022-11-15T01:46:04;101135.84;;;7.76;80.73
74778;BME280;63298;53.164;8.610;2022-11-15T01:48:34;101126.13;;;7.74;80.77
74778;BME280;63298;53.164;8.610;2022-11-15T01:51:03;101124.63;;;7.71;80.63
74778;BME280;63298;53.164;8.610;2022-11-15T01:53:31;101119.34;;;7.70;80.81
74778;BME280;63298;53.164;8.610;2022-11-15T01:56:02;101119.78;;;7.67;80.68
74778;BME280;63298;53.164;8.610;2022-11-15T01:58:28;101109.44;;;7.69;81.20
74778;BME280;63298;53.164;8.610;2022-11-15T02:00:54;101114.69;;;7.70;80.64
74778;BME280;63298;53.164;8.610;2022-11-15T02:03:21;101117.69;;;7.69;80.39
74778;BME280;63298;53.164;8.610;2022-11-15T02:05:49;101113.44;;;7.66;81.01
74778;BME280;63298;53.164;8.610;2022-11-15T02:08:15;101107.09;;;7.66;80.73
74778;BME280;63298;53.164;8.610;2022-11-15T02:10:40;101091.06;;;7.63;80.80
74778;BME280;63298;53.164;8.610;2022-11-15T02:13:06;101091.91;;;7.63;80.81
74778;BME280;63298;53.164;8.610;2022-11-15T02:15:38;101091.06;;;7.63;81.03
74778;BME280;63298;53.164;8.610;2022-11-15T02:18:14;101100.56;;;7.67;81.23
74778;BME280;63298;53.164;8.610;2022-11-15T02:23:52;101099.53;;;7.74;80.89
74778;BME280;63298;53.164;8.610;2022-11-15T02:26:38;101104.56;;;7.77;81.19
74778;BME280;63298;53.164;8.610;2022-11-15T02:29:52;101096.94;;;7.79;81.28
74778;BME280;63298;53.164;8.610;2022-11-15T02:32:45;101094.00;;;7.81;81.69
74778;BME280;63298;53.164;8.610;2022-11-15T02:35:23;101092.09;;;7.88;80.78
74778;BME280;63298;53.164;8.610;2022-11-15T02:37:58;101092.72;;;7.90;80.92
74778;BME280;63298;53.164;8.610;2022-11-15T02:43:01;101088.50;;;7.94;80.93
74778;BME280;63298;53.164;8.610;2022-11-15T02:45:30;101080.44;;;7.99;80.79
74778;BME280;63298;53.164;8.610;2022-11-15T02:47:58;101088.47;;;8.07;80.61
74778;BME280;63298;53.164;8.610;2022-11-15T02:50:28;101088.03;;;8.10;80.73
74778;BME280;63298;53.164;8.610;2022-11-15T02:52:55;101086.53;;;8.14;80.53
74778;BME280;63298;53.164;8.610;2022-11-15T02:55:32;101085.88;;;8.19;80.49
74778;BME280;63298;53.164;8.610;2022-11-15T03:04:18;101090.13;;;8.28;80.48
74778;BME280;63298;53.164;8.610;2022-11-15T03:06:57;101094.34;;;8.31;80.48
74778;BME280;63298;53.164;8.610;2022-11-15T03:09:47;101090.34;;;8.33;80.83
74778;BME280;63298;53.164;8.610;2022-11-15T03:12:57;101081.25;;;8.33;81.02
74778;BME280;63298;53.164;8.610;2022-11-15T03:15:28;101088.41;;;8.40;81.04
74778;BME280;63298;53.164;8.610;2022-11-15T03:18:02;101090.09;;;8.41;80.70
74778;BME280;63298;53.164;8.610;2022-11-15T03:20:31;101090.28;;;8.46;80.08
74778;BME280;63298;53.164;8.610;2022-11-15T03:23:03;101086.25;;;8.49;80.58
74778;BME280;63298;53.164;8.610;2022-11-15T03:25:31;101088.38;;;8.53;80.08
74778;BME280;63298;53.164;8.610;2022-11-15T03:28:01;101076.09;;;8.56;80.77
74778;BME280;63298;53.164;8.610;2022-11-15T03:30:30;101080.28;;;8.58;80.09
74778;BME280;63298;53.164;8.610;2022-11-15T03:32:59;101085.78;;;8.58;80.37
74778;BME280;63298;53.164;8.610;2022-11-15T03:35:30;101083.47;;;8.62;80.80
74778;BME280;63298;53.164;8.610;2022-11-15T03:40:54;101066.69;;;8.70;80.53
74778;BME280;63298;53.164;8.610;2022-11-15T03:43:43;101072.59;;;8.74;80.70
74778;BME280;63298;53.164;8.610;2022-11-15T03:46:16;101073.88;;;8.78;80.19
74778;BME280;63298;53.164;8.610;2022-11-15T03:49:11;101067.53;;;8.77;82.09
74778;BME280;63298;53.164;8.610;2022-11-15T03:51:38;101060.94;;;8.78;80.55
74778;BME280;63298;53.164;8.610;2022-11-15T03:54:04;101060.53;;;8.81;80.71
74778;BME280;63298;53.164;8.610;2022-11-15T03:56:31;101059.00;;;8.85;80.96
74778;BME280;63298;53.164;8.610;2022-11-15T03:58:57;101061.53;;;8.87;80.50
74778;BME280;63298;53.164;8.610;2022-11-15T04:01:24;101059.19;;;8.90;80.19
74778;BME280;63298;53.164;8.610;2022-11-15T04:03:50;101059.81;;;8.92;80.94
74778;BME280;63298;53.164;8.610;2022-11-15T04:06:19;101050.47;;;8.93;81.17
74778;BME280;63298;53.164;8.610;2022-11-15T04:08:46;101051.75;;;8.97;80.74
74778;BME280;63298;53.164;8.610;2022-11-15T04:11:14;101053.41;;;8.98;81.01
74778;BME280;63298;53.164;8.610;2022-11-15T04:13:40;101041.13;;;9.01;81.62
74778;BME280;63298;53.164;8.610;2022-11-15T04:16:06;101048.09;;;9.03;81.05
74778;BME280;63298;53.164;8.610;2022-11-15T04:18:32;101044.06;;;9.06;81.24
74778;BME280;63298;53.164;8.610;2022-11-15T04:20:58;101047.41;;;9.08;81.21
74778;BME280;63298;53.164;8.610;2022-11-15T04:23:24;101042.94;;;9.14;81.97
74778;BME280;63298;53.164;8.610;2022-11-15T04:25:51;101056.28;;;9.17;81.07
74778;BME280;63298;53.164;8.610;2022-11-15T04:28:18;101045.03;;;9.18;81.22
74778;BME280;63298;53.164;8.610;2022-11-15T04:30:45;101060.66;;;9.24;81.45
74778;BME280;63298;53.164;8.610;2022-11-15T04:33:11;101057.22;;;9.29;81.10
74778;BME280;63298;53.164;8.610;2022-11-15T04:35:37;101055.09;;;9.31;80.89
74778;BME280;63298;53.164;8.610;2022-11-15T04:38:04;101051.50;;;9.30;81.40
74778;BME280;63298;53.164;8.610;2022-11-15T04:40:31;101050.19;;;9.33;81.35
74778;BME280;63298;53.164;8.610;2022-11-15T04:42:57;101054.03;;;9.32;81.53
74778;BME280;63298;53.164;8.610;2022-11-15T04:45:22;101052.75;;;9.34;81.04
74778;BME280;63298;53.164;8.610;2022-11-15T04:47:49;101045.97;;;9.37;81.17
74778;BME280;63298;53.164;8.610;2022-11-15T04:50:15;101048.47;;;9.38;81.33
74778;BME280;63298;53.164;8.610;2022-11-15T04:52:43;101049.94;;;9.41;81.13
74778;BME280;63298;53.164;8.610;2022-11-15T04:55:14;101051.63;;;9.42;80.95
74778;BME280;63298;53.164;8.610;2022-11-15T04:57:40;101048.22;;;9.46;81.28
74778;BME280;63298;53.164;8.610;2022-11-15T05:00:08;101057.06;;;9.48;81.84
74778;BME280;63298;53.164;8.610;2022-11-15T05:02:34;101058.09;;;9.54;80.91
74778;BME280;63298;53.164;8.610;2022-11-15T05:05:00;101059.78;;;9.55;80.84
74778;BME280;63298;53.164;8.610;2022-11-15T05:07:25;101063.13;;;9.57;81.09
74778;BME280;63298;53.164;8.610;2022-11-15T05:09:51;101048.53;;;9.57;80.80
74778;BME280;63298;53.164;8.610;2022-11-15T05:12:16;101050.00;;;9.59;80.97
74778;BME280;63298;53.164;8.610;2022-11-15T05:14:42;101051.69;;;9.60;80.98
74778;BME280;63298;53.164;8.610;2022-11-15T05:17:07;101048.72;;;9.62;80.51
74778;BME280;63298;53.164;8.610;2022-11-15T05:19:33;101050.38;;;9.63;81.50
74778;BME280;63298;53.164;8.610;2022-11-15T05:21:58;101055.03;;;9.62;81.10
74778;BME280;63298;53.164;8.610;2022-11-15T05:24:24;101047.88;;;9.61;81.34
74778;BME280;63298;53.164;8.610;2022-11-15T05:26:49;101046.56;;;9.64;80.98
74778;BME280;63298;53.164;8.610;2022-11-15T05:29:15;101042.75;;;9.65;80.79
74778;BME280;63298;53.164;8.610;2022-11-15T05:31:41;101041.91;;;9.64;80.73
74778;BME280;63298;53.164;8.610;2022-11-15T05:34:06;101041.44;;;9.67;81.09
74778;BME280;63298;53.164;8.610;2022-11-15T05:36:41;101039.78;;;9.66;81.74
74778;BME280;63298;53.164;8.610;2022-11-15T05:39:07;101035.09;;;9.67;80.97
74778;BME280;63298;53.164;8.610;2022-11-15T05:41:44;101036.34;;;9.71;81.18
74778;BME280;63298;53.164;8.610;2022-11-15T05:44:14;101035.88;;;9.74;81.43
74778;BME280;63298;53.164;8.610;2022-11-15T05:46:43;101039.25;;;9.76;80.59
74778;BME280;63298;53.164;8.610;2022-11-15T05:49:11;101026.75;;;9.73;80.75
74778;BME280;63298;53.164;8.610;2022-11-15T05:51:38;101027.59;;;9.74;82.43
74778;BME280;63298;53.164;8.610;2022-11-15T05:54:04;101038.41;;;9.75;80.40
74778;BME280;63298;53.164;8.610;2022-11-15T05:56:29;101032.44;;;9.78;80.82
74778;BME280;63298;53.164;8.610;2022-11-15T05:58:56;101034.34;;;9.78;80.84
74778;BME280;63298;53.164;8.610;2022-11-15T06:01:25;101038.41;;;9.75;81.11
74778;BME280;63298;53.164;8.610;2022-11-15T06:03:51;101030.53;;;9.79;81.61
74778;BME280;63298;53.164;8.610;2022-11-15T06:06:16;101036.50;;;9.76;80.83
74778;BME280;63298;53.164;8.610;2022-11-15T06:08:42;101038.56;;;9.80;80.99
74778;BME280;63298;53.164;8.610;2022-11-15T06:11:07;101040.09;;;9.76;81.39
74778;BME280;63298;53.164;8.610;2022-11-15T06:13:34;101048.97;;;9.78;80.85
74778;BME280;63298;53.164;8.610;2022-11-15T06:15:59;101035.19;;;9.78;81.47
74778;BME280;63298;53.164;8.610;2022-11-15T06:18:25;101046.84;;;9.80;81.23
74778;BME280;63298;53.164;8.610;2022-11-15T06:20:51;101049.34;;;9.82;81.24
74778;BME280;63298;53.164;8.610;2022-11-15T06:23:17;101051.03;;;9.83;81.75
74778;BME280;63298;53.164;8.610;2022-11-15T06:25:42;101038.72;;;9.85;81.42
74778;BME280;63298;53.164;8.610;2022-11-15T06:28:08;101046.53;;;9.88;81.24
74778;BME280;63298;53.164;8.610;2022-11-15T06:30:33;101043.34;;;9.91;80.99
74778;BME280;63298;53.164;8.610;2022-11-15T06:33:03;101046.69;;;9.93;80.70
74778;BME280;63298;53.164;8.610;2022-11-15T06:35:29;101043.94;;;9.93;81.81
74778;BME280;63298;53.164;8.610;2022-11-15T06:37:56;101052.81;;;9.95;80.92
74778;BME280;63298;53.164;8.610;2022-11-15T06:40:26;101052.56;;;9.97;81.54
74778;BME280;63298;53.164;8.610;2022-11-15T06:42:57;101051.72;;;9.96;81.29
74778;BME280;63298;53.164;8.610;2022-11-15T06:45:23;101050.44;;;9.99;81.93
74778;BME280;63298;53.164;8.610;2022-11-15T06:47:48;101054.06;;;10.00;81.72
74778;BME280;63298;53.164;8.610;2022-11-15T06:50:14;101045.56;;;10.01;81.14
74778;BME280;63298;53.164;8.610;2022-11-15T06:52:40;101051.88;;;10.02;81.55
74778;BME280;63298;53.164;8.610;2022-11-15T06:55:06;101048.06;;;10.03;81.83
74778;BME280;63298;53.164;8.610;2022-11-15T06:57:32;101055.06;;;10.05;80.77
74778;BME280;63298;53.164;8.610;2022-11-15T06:59:57;101066.47;;;10.09;81.40
74778;BME280;63298;53.164;8.610;2022-11-15T07:02:23;101055.44;;;10.09;81.64
74778;BME280;63298;53.164;8.610;2022-11-15T07:04:48;101054.16;;;10.11;81.82
74778;BME280;63298;53.164;8.610;2022-11-15T07:07:14;101058.34;;;10.14;81.68
74778;BME280;63298;53.164;8.610;2022-11-15T07:09:39;101061.09;;;10.14;81.96
74778;BME280;63298;53.164;8.610;2022-11-15T07:12:05;101063.88;;;10.14;82.08
74778;BME280;63298;53.164;8.610;2022-11-15T07:14:30;101059.19;;;10.14;81.86
74778;BME280;63298;53.164;8.610;2022-11-15T07:16:56;101062.34;;;10.18;81.90
74778;BME280;63298;53.164;8.610;2022-11-15T07:19:21;101060.81;;;10.22;81.74
74778;BME280;63298;53.164;8.610;2022-11-15T07:21:46;101062.06;;;10.26;81.88
74778;BME280;63298;53.164;8.610;2022-11-15T07:24:12;101069.88;;;10.29;82.03
74778;BME280;63298;53.164;8.610;2022-11-15T07:26:38;101070.50;;;10.31;81.81
74778;BME280;63298;53.164;8.610;2022-11-15T07:29:03;101067.28;;;10.34;81.54
74778;BME280;63298;53.164;8.610;2022-11-15T07:31:29;101062.13;;;10.37;82.12
74778;BME280;63298;53.164;8.610;2022-11-15T07:33:54;101051.72;;;10.39;82.53
74778;BME280;63298;53.164;8.610;2022-11-15T07:36:19;101060.59;;;10.42;82.32
74778;BME280;63298;53.164;8.610;2022-11-15T07:38:45;101057.53;;;10.50;82.15
74778;BME280;63298;53.164;8.610;2022-11-15T07:41:10;101065.13;;;10.54;82.16
74778;BME280;63298;53.164;8.610;2022-11-15T07:43:36;101062.94;;;10.56;82.00
74778;BME280;63298;53.164;8.610;2022-11-15T07:46:06;101055.78;;;10.55;82.52
74778;BME280;63298;53.164;8.610;2022-11-15T07:48:32;101064.56;;;10.64;82.57
74778;BME280;63298;53.164;8.610;2022-11-15T07:50:58;101058.81;;;10.65;82.01
74778;BME280;63298;53.164;8.610;2022-11-15T07:53:23;101064.25;;;10.72;82.48
74778;BME280;63298;53.164;8.610;2022-11-15T07:55:48;101060.78;;;10.76;82.50
74778;BME280;63298;53.164;8.610;2022-11-15T07:58:14;101068.00;;;10.77;82.16
74778;BME280;63298;53.164;8.610;2022-11-15T08:00:39;101068.13;;;10.82;82.23
74778;BME280;63298;53.164;8.610;2022-11-15T08:03:10;101057.72;;;10.85;82.03
74778;BME280;63298;53.164;8.610;2022-11-15T08:05:37;101065.03;;;10.91;82.18
74778;BME280;63298;53.164;8.610;2022-11-15T08:08:03;101070.34;;;10.92;82.16
74778;BME280;63298;53.164;8.610;2022-11-15T08:10:29;101064.59;;;10.94;82.04
74778;BME280;63298;53.164;8.610;2022-11-15T08:13:02;101064.09;;;10.97;82.31
74778;BME280;63298;53.164;8.610;2022-11-15T08:15:28;101060.50;;;10.96;82.02
74778;BME280;63298;53.164;8.610;2022-11-15T08:17:58;101057.28;;;10.99;82.51
74778;BME280;63298;53.164;8.610;2022-11-15T08:20:24;101056.59;;;11.04;82.06
74778;BME280;63298;53.164;8.610;2022-11-15T08:22:50;101059.72;;;11.07;81.90
74778;BME280;63298;53.164;8.610;2022-11-15T08:25:17;101065.16;;;11.14;81.97
74778;BME280;63298;53.164;8.610;2022-11-15T08:27:42;101064.66;;;11.17;82.27
74778;BME280;63298;53.164;8.610;2022-11-15T08:30:08;101062.53;;;11.19;82.17
74778;BME280;63298;53.164;8.610;2022-11-15T08:32:33;101071.16;;;11.22;82.05
74778;BME280;63298;53.164;8.610;2022-11-15T08:34:59;101069.25;;;11.23;81.73
74778;BME280;63298;53.164;8.610;2022-11-15T08:37:24;101072.16;;;11.28;81.81
74778;BME280;63298;53.164;8.610;2022-11-15T08:39:49;101063.63;;;11.30;81.90
74778;BME280;63298;53.164;8.610;2022-11-15T08:42:15;101062.53;;;11.31;81.81
74778;BME280;63298;53.164;8.610;2022-11-15T08:44:42;101057.84;;;11.31;82.50
74778;BME280;63298;53.164;8.610;2022-11-15T08:47:07;101056.28;;;11.35;82.03
74778;BME280;63298;53.164;8.610;2022-11-15T08:49:36;101057.97;;;11.36;81.92
74778;BME280;63298;53.164;8.610;2022-11-15T08:52:02;101060.53;;;11.38;81.99
74778;BME280;63298;53.164;8.610;2022-11-15T08:54:27;101051.38;;;11.37;81.98
74778;BME280;63298;53.164;8.610;2022-11-15T08:56:52;101060.88;;;11.41;81.97
74778;BME280;63298;53.164;8.610;2022-11-15T08:59:18;101061.00;;;11.46;82.19
74778;BME280;63298;53.164;8.610;2022-11-15T09:01:43;101058.00;;;11.48;82.14
74778;BME280;63298;53.164;8.610;2022-11-15T09:04:09;101063.91;;;11.51;81.60
74778;BME280;63298;53.164;8.610;2022-11-15T09:06:34;101062.34;;;11.55;82.14
74778;BME280;63298;53.164;8.610;2022-11-15T09:09:01;101059.97;;;11.59;81.69
74778;BME280;63298;53.164;8.610;2022-11-15T09:11:26;101061.38;;;11.61;81.56
74778;BME280;63298;53.164;8.610;2022-11-15T09:13:52;101052.75;;;11.58;81.73
74778;BME280;63298;53.164;8.610;2022-11-15T09:16:17;101063.66;;;11.64;82.13
74778;BME280;63298;53.164;8.610;2022-11-15T09:18:44;101059.25;;;11.63;81.91
74778;BME280;63298;53.164;8.610;2022-11-15T09:21:10;101064.50;;;11.65;81.70
74778;BME280;63298;53.164;8.610;2022-11-15T09:23:35;101065.84;;;11.62;82.40
74778;BME280;63298;53.164;8.610;2022-11-15T09:26:02;101062.59;;;11.65;82.13
74778;BME280;63298;53.164;8.610;2022-11-15T09:28:28;101053.00;;;11.68;82.08
74778;BME280;63298;53.164;8.610;2022-11-15T09:31:02;101046.84;;;11.66;81.90
74778;BME280;63298;53.164;8.610;2022-11-15T09:33:28;101046.56;;;11.74;81.83
74778;BME280;63298;53.164;8.610;2022-11-15T09:35:59;101047.13;;;11.76;82.16
74778;BME280;63298;53.164;8.610;2022-11-15T09:38:26;101053.63;;;11.82;81.60
74778;BME280;63298;53.164;8.610;2022-11-15T09:40:57;101050.38;;;11.85;81.86
74778;BME280;63298;53.164;8.610;2022-11-15T09:47:33;101058.19;;;11.99;81.93
74778;BME280;63298;53.164;8.610;2022-11-15T09:49:34;101055.31;;;12.06;81.71
74778;BME280;63298;53.164;8.610;2022-11-15T09:52:00;101052.66;;;12.11;81.54
74778;BME280;63298;53.164;8.610;2022-11-15T09:54:37;101056.16;;;12.18;81.76
74778;BME280;63298;53.164;8.610;2022-11-15T09:57:13;101049.38;;;12.26;81.61
74778;BME280;63298;53.164;8.610;2022-11-15T10:04:54;101032.88;;;12.42;81.23
74778;BME280;63298;53.164;8.610;2022-11-15T10:07:27;101027.81;;;12.51;81.01
74778;BME280;63298;53.164;8.610;2022-11-15T10:10:01;101023.97;;;12.52;80.78
74778;BME280;63298;53.164;8.610;2022-11-15T10:12:30;101019.38;;;12.58;80.83
74778;BME280;63298;53.164;8.610;2022-11-15T10:15:06;101024.75;;;12.64;80.96
74778;BME280;63298;53.164;8.610;2022-11-15T10:18:14;101027.97;;;12.73;80.77
74778;BME280;63298;53.164;8.610;2022-11-15T10:20:47;101024.81;;;12.81;80.82
74778;BME280;63298;53.164;8.610;2022-11-15T10:23:17;101025.38;;;12.83;80.52
74778;BME280;63298;53.164;8.610;2022-11-15T10:25:43;101023.22;;;12.85;80.32
74778;BME280;63298;53.164;8.610;2022-11-15T10:30:40;101019.59;;;12.84;80.41
74778;BME280;63298;53.164;8.610;2022-11-15T10:46:39;101011.91;;;13.03;80.02
74778;BME280;63298;53.164;8.610;2022-11-15T10:49:18;101006.03;;;13.11;79.76
74778;BME280;63298;53.164;8.610;2022-11-15T10:54:42;100982.34;;;13.20;79.56
74778;BME280;63298;53.164;8.610;2022-11-15T10:57:18;100979.34;;;13.22;79.90
74778;BME280;63298;53.164;8.610;2022-11-15T10:59:50;100975.81;;;13.26;79.92
74778;BME280;63298;53.164;8.610;2022-11-15T11:02:38;100967.09;;;13.34;79.74
74778;BME280;63298;53.164;8.610;2022-11-15T11:07:59;100965.41;;;13.50;79.19
74778;BME280;63298;53.164;8.610;2022-11-15T11:10:25;100967.41;;;13.55;79.04
74778;BME280;63298;53.164;8.610;2022-11-15T11:12:50;100953.31;;;13.56;79.06
74778;BME280;63298;53.164;8.610;2022-11-15T11:15:17;100959.50;;;13.63;78.95
74778;BME280;63298;53.164;8.610;2022-11-15T11:18:06;100952.41;;;13.72;78.92
74778;BME280;63298;53.164;8.610;2022-11-15T11:20:40;100945.94;;;13.83;78.57
74778;BME280;63298;53.164;8.610;2022-11-15T11:26:15;100947.16;;;13.93;78.91
74778;BME280;63298;53.164;8.610;2022-11-15T11:29:10;100941.94;;;13.96;78.40
74778;BME280;63298;53.164;8.610;2022-11-15T11:34:54;100930.91;;;14.01;78.41
74778;BME280;63298;53.164;8.610;2022-11-15T11:37:30;100929.63;;;14.09;78.11
74778;BME280;63298;53.164;8.610;2022-11-15T11:42:47;100907.63;;;14.24;78.07
74778;BME280;63298;53.164;8.610;2022-11-15T11:48:13;100918.09;;;14.39;77.18
74778;BME280;63298;53.164;8.610;2022-11-15T11:50:41;100916.47;;;14.43;77.41
74778;BME280;63298;53.164;8.610;2022-11-15T11:53:28;100918.69;;;14.46;76.28
74778;BME280;63298;53.164;8.610;2022-11-15T11:55:58;100922.31;;;14.46;76.76
74778;BME280;63298;53.164;8.610;2022-11-15T11:58:42;100924.84;;;14.48;76.82
74778;BME280;63298;53.164;8.610;2022-11-15T12:01:16;100923.16;;;14.47;77.03
74778;BME280;63298;53.164;8.610;2022-11-15T12:03:48;100919.50;;;14.41;77.05
74778;BME280;63298;53.164;8.610;2022-11-15T12:09:30;100919.25;;;14.43;76.91
74778;BME280;63298;53.164;8.610;2022-11-15T12:12:31;100917.91;;;14.45;76.64
74778;BME280;63298;53.164;8.610;2022-11-15T12:15:39;100916.22;;;14.44;76.49
74778;BME280;63298;53.164;8.610;2022-11-15T12:17:45;100915.19;;;14.55;76.63
74778;BME280;63298;53.164;8.610;2022-11-15T12:22:57;100901.75;;;14.69;75.81
74778;BME280;63298;53.164;8.610;2022-11-15T12:25:31;100893.19;;;14.76;76.11
74778;BME280;63298;53.164;8.610;2022-11-15T12:28:21;100893.25;;;14.81;75.54
74778;BME280;63298;53.164;8.610;2022-11-15T12:33:57;100878.84;;;14.84;75.70
74778;BME280;63298;53.164;8.610;2022-11-15T12:41:31;100872.97;;;14.80;75.44
74778;BME280;63298;53.164;8.610;2022-11-15T12:43:57;100866.53;;;14.75;75.33
74778;BME280;63298;53.164;8.610;2022-11-15T13:00:36;100858.16;;;14.69;74.24
74778;BME280;63298;53.164;8.610;2022-11-15T13:02:44;100856.22;;;14.70;74.62
74778;BME280;63298;53.164;8.610;2022-11-15T13:17:54;100845.25;;;15.22;73.14
74778;BME280;63298;53.164;8.610;2022-11-15T13:20:28;100834.34;;;15.16;71.83
74778;BME280;63298;53.164;8.610;2022-11-15T13:23:13;100845.47;;;15.16;72.97
74778;BME280;63298;53.164;8.610;2022-11-15T13:33:32;100841.47;;;15.01;72.54
74778;BME280;63298;53.164;8.610;2022-11-15T13:36:01;100846.47;;;14.99;72.70
74778;BME280;63298;53.164;8.610;2022-11-15T13:38:36;100847.25;;;14.95;71.64
74778;BME280;63298;53.164;8.610;2022-11-15T13:41:20;100842.44;;;14.85;71.29
74778;BME280;63298;53.164;8.610;2022-11-15T13:43:47;100854.69;;;14.84;71.99
74778;BME280;63298;53.164;8.610;2022-11-15T13:46:13;100843.25;;;14.81;71.49
74778;BME280;63298;53.164;8.610;2022-11-15T13:48:42;100837.38;;;14.77;71.85
74778;BME280;63298;53.164;8.610;2022-11-15T13:57:00;100840.03;;;14.62;70.97
74778;BME280;63298;53.164;8.610;2022-11-15T13:59:30;100829.22;;;14.65;71.61
74778;BME280;63298;53.164;8.610;2022-11-15T14:02:14;100831.50;;;14.68;70.00
74778;BME280;63298;53.164;8.610;2022-11-15T14:05:02;100830.66;;;14.68;70.65
74778;BME280;63298;53.164;8.610;2022-11-15T14:07:28;100833.44;;;14.68;70.80
74778;BME280;63298;53.164;8.610;2022-11-15T14:09:54;100839.28;;;14.72;70.76
74778;BME280;63298;53.164;8.610;2022-11-15T14:12:34;100822.03;;;14.64;69.34
74778;BME280;63298;53.164;8.610;2022-11-15T14:15:39;100812.81;;;14.59;70.29
74778;BME280;63298;53.164;8.610;2022-11-15T14:18:05;100825.59;;;14.60;70.72
74778;BME280;63298;53.164;8.610;2022-11-15T14:20:33;100823.03;;;14.53;70.24
74778;BME280;63298;53.164;8.610;2022-11-15T14:23:02;100811.88;;;14.48;70.74
74778;BME280;63298;53.164;8.610;2022-11-15T14:25:29;100813.81;;;14.48;70.76
74778;BME280;63298;53.164;8.610;2022-11-15T14:30:45;100815.66;;;14.37;70.31
74778;BME280;63298;53.164;8.610;2022-11-15T14:33:31;100814.16;;;14.30;70.65
74778;BME280;63298;53.164;8.610;2022-11-15T14:36:02;100813.84;;;14.26;70.99
74778;BME280;63298;53.164;8.610;2022-11-15T14:38:28;100810.19;;;14.20;70.91
74778;BME280;63298;53.164;8.610;2022-11-15T14:40:54;100819.03;;;14.17;71.17
74778;BME280;63298;53.164;8.610;2022-11-15T14:43:20;100823.69;;;14.12;71.20
74778;BME280;63298;53.164;8.610;2022-11-15T14:45:45;100808.59;;;14.03;70.86
74778;BME280;63298;53.164;8.610;2022-11-15T14:48:11;100820.22;;;14.00;71.41
74778;BME280;63298;53.164;8.610;2022-11-15T14:50:37;100815.41;;;13.90;71.54
74778;BME280;63298;53.164;8.610;2022-11-15T14:53:03;100814.50;;;13.84;71.75
74778;BME280;63298;53.164;8.610;2022-11-15T14:55:31;100809.16;;;13.78;71.21
74778;BME280;63298;53.164;8.610;2022-11-15T14:57:58;100811.59;;;13.74;71.91
74778;BME280;63298;53.164;8.610;2022-11-15T15:00:24;100799.03;;;13.67;71.83